sensor_id;sensor_type;location;lat;lon;timestamp;P1;durP1;ratioP1;P2;durP2;ratioP2
12603;SDS011;6367;52.508;13.284;2022-07-10T00:02:13;6.20;;;1.80;;
12603;SDS011;6367;52.508;13.284;2022-07-10T00:04:39;2.57;;;1.57;;
12603;SDS011;6367;52.508;13.284;2022-07-10T00:07:07;2.57;;;1.47;;
12603;SDS011;6367;52.508;13.284;2022-07-10T00:09:33;6.20;;;1.63;;
12603;SDS011;6367;52.508;13.284;2022-07-10T00:11:58;3.00;;;1.30;;
12603;SDS011;6367;52.508;13.284;2022-07-10T00:14:24;6.63;;;1.50;;
12603;SDS011;6367;52.508;13.284;2022-07-10T00:16:49;3.23;;;1.30;;
12603;SDS011;6367;52.508;13.284;2022-07-10T00:19:15;2.50;;;1.33;;
12603;SDS011;6367;52.508;13.284;2022-07-10T00:21:40;6.90;;;1.60;;
12603;SDS011;6367;52.508;13.284;2022-07-10T00:24:06;3.17;;;1.27;;
12603;SDS011;6367;52.508;13.284;2022-07-10T00:26:32;2.77;;;1.27;;
12603;SDS011;6367;52.508;13.284;2022-07-10T00:28:57;7.20;;;1.73;;
12603;SDS011;6367;52.508;13.284;2022-07-10T00:31:23;5.63;;;1.67;;
12603;SDS011;6367;52.508;13.284;2022-07-10T00:33:48;6.90;;;1.70;;
12603;SDS011;6367;52.508;13.284;2022-07-10T00:36:16;6.43;;;2.03;;
12603;SDS011;6367;52.508;13.284;2022-07-10T00:38:41;2.40;;;1.00;;
12603;SDS011;6367;52.508;13.284;2022-07-10T00:41:07;3.63;;;1.67;;
12603;SDS011;6367;52.508;13.284;2022-07-10T00:46:21;4.50;;;1.50;;
12603;SDS011;6367;52.508;13.284;2022-07-10T00:48:47;6.07;;;2.10;;
12603;SDS011;6367;52.508;13.284;2022-07-10T00:51:14;3.07;;;1.20;;
12603;SDS011;6367;52.508;13.284;2022-07-10T00:53:42;4.73;;;1.43;;
12603;SDS011;6367;52.508;13.284;2022-07-10T00:56:10;5.90;;;1.57;;
12603;SDS011;6367;52.508;13.284;2022-07-10T00:58:37;3.93;;;1.10;;
12603;SDS011;6367;52.508;13.284;2022-07-10T01:01:04;4.93;;;1.43;;
12603;SDS011;6367;52.508;13.284;2022-07-10T01:03:31;2.90;;;1.20;;
12603;SDS011;6367;52.508;13.284;2022-07-10T01:05:57;3.20;;;1.30;;
12603;SDS011;6367;52.508;13.284;2022-07-10T01:08:23;6.73;;;1.37;;
12603;SDS011;6367;52.508;13.284;2022-07-10T01:10:49;5.17;;;1.70;;
12603;SDS011;6367;52.508;13.284;2022-07-10T01:13:15;5.20;;;1.40;;
12603;SDS011;6367;52.508;13.284;2022-07-10T01:15:40;2.70;;;1.30;;
12603;SDS011;6367;52.508;13.284;2022-07-10T01:18:06;2.70;;;1.20;;
12603;SDS011;6367;52.508;13.284;2022-07-10T01:20:32;2.30;;;1.27;;
12603;SDS011;6367;52.508;13.284;2022-07-10T01:23:02;5.00;;;1.50;;
12603;SDS011;6367;52.508;13.284;2022-07-10T01:25:28;5.53;;;1.50;;
12603;SDS011;6367;52.508;13.284;2022-07-10T01:27:53;3.10;;;1.20;;
12603;SDS011;6367;52.508;13.284;2022-07-10T01:30:19;6.10;;;1.33;;
12603;SDS011;6367;52.508;13.284;2022-07-10T01:32:46;3.57;;;1.33;;
12603;SDS011;6367;52.508;13.284;2022-07-10T01:35:12;4.23;;;1.20;;
12603;SDS011;6367;52.508;13.284;2022-07-10T01:37:38;3.23;;;1.60;;
12603;SDS011;6367;52.508;13.284;2022-07-10T01:40:05;5.80;;;1.40;;
12603;SDS011;6367;52.508;13.284;2022-07-10T01:42:31;5.23;;;1.73;;
12603;SDS011;6367;52.508;13.284;2022-07-10T01:44:57;4.10;;;1.67;;
12603;SDS011;6367;52.508;13.284;2022-07-10T01:47:23;3.10;;;1.47;;
12603;SDS011;6367;52.508;13.284;2022-07-10T01:49:50;3.23;;;1.10;;
12603;SDS011;6367;52.508;13.284;2022-07-10T01:52:17;4.23;;;1.33;;
12603;SDS011;6367;52.508;13.284;2022-07-10T01:54:43;4.73;;;1.10;;
12603;SDS011;6367;52.508;13.284;2022-07-10T01:57:09;3.07;;;1.20;;
12603;SDS011;6367;52.508;13.284;2022-07-10T01:59:34;5.90;;;1.30;;
12603;SDS011;6367;52.508;13.284;2022-07-10T02:02:00;2.90;;;1.30;;
12603;SDS011;6367;52.508;13.284;2022-07-10T02:04:25;2.80;;;1.03;;
12603;SDS011;6367;52.508;13.284;2022-07-10T02:07:15;3.57;;;1.30;;
12603;SDS011;6367;52.508;13.284;2022-07-10T02:09:43;4.07;;;1.07;;
12603;SDS011;6367;52.508;13.284;2022-07-10T02:12:10;4.03;;;1.13;;
12603;SDS011;6367;52.508;13.284;2022-07-10T02:14:38;3.10;;;1.10;;
12603;SDS011;6367;52.508;13.284;2022-07-10T02:17:04;3.70;;;1.47;;
12603;SDS011;6367;52.508;13.284;2022-07-10T02:19:30;2.37;;;1.30;;
12603;SDS011;6367;52.508;13.284;2022-07-10T02:21:56;2.67;;;1.17;;
12603;SDS011;6367;52.508;13.284;2022-07-10T02:24:21;2.80;;;1.27;;
12603;SDS011;6367;52.508;13.284;2022-07-10T02:26:47;2.00;;;1.03;;
12603;SDS011;6367;52.508;13.284;2022-07-10T02:29:13;6.87;;;1.73;;
12603;SDS011;6367;52.508;13.284;2022-07-10T02:31:39;2.83;;;1.00;;
12603;SDS011;6367;52.508;13.284;2022-07-10T02:34:08;4.20;;;1.40;;
12603;SDS011;6367;52.508;13.284;2022-07-10T02:36:37;3.07;;;1.20;;
12603;SDS011;6367;52.508;13.284;2022-07-10T02:39:04;2.07;;;0.80;;
12603;SDS011;6367;52.508;13.284;2022-07-10T02:41:30;4.13;;;1.13;;
12603;SDS011;6367;52.508;13.284;2022-07-10T02:43:56;2.70;;;1.07;;
12603;SDS011;6367;52.508;13.284;2022-07-10T02:46:22;2.53;;;1.10;;
12603;SDS011;6367;52.508;13.284;2022-07-10T02:48:47;3.30;;;1.10;;
12603;SDS011;6367;52.508;13.284;2022-07-10T02:51:13;2.07;;;1.03;;
12603;SDS011;6367;52.508;13.284;2022-07-10T02:53:39;4.00;;;1.10;;
12603;SDS011;6367;52.508;13.284;2022-07-10T02:56:04;2.53;;;0.70;;
12603;SDS011;6367;52.508;13.284;2022-07-10T02:58:30;2.93;;;1.07;;
12603;SDS011;6367;52.508;13.284;2022-07-10T03:00:56;3.20;;;1.03;;
12603;SDS011;6367;52.508;13.284;2022-07-10T03:03:22;6.00;;;1.20;;
12603;SDS011;6367;52.508;13.284;2022-07-10T03:05:49;4.47;;;1.10;;
12603;SDS011;6367;52.508;13.284;2022-07-10T03:08:14;3.40;;;1.30;;
12603;SDS011;6367;52.508;13.284;2022-07-10T03:10:40;2.00;;;1.17;;
12603;SDS011;6367;52.508;13.284;2022-07-10T03:13:05;2.90;;;0.93;;
12603;SDS011;6367;52.508;13.284;2022-07-10T03:15:31;4.23;;;1.20;;
12603;SDS011;6367;52.508;13.284;2022-07-10T03:17:57;2.30;;;1.00;;
12603;SDS011;6367;52.508;13.284;2022-07-10T03:20:23;5.20;;;1.00;;
12603;SDS011;6367;52.508;13.284;2022-07-10T03:22:49;3.43;;;1.13;;
12603;SDS011;6367;52.508;13.284;2022-07-10T03:25:15;2.83;;;1.23;;
12603;SDS011;6367;52.508;13.284;2022-07-10T03:27:41;3.90;;;0.90;;
12603;SDS011;6367;52.508;13.284;2022-07-10T03:30:07;2.33;;;1.10;;
12603;SDS011;6367;52.508;13.284;2022-07-10T03:32:33;2.23;;;0.90;;
12603;SDS011;6367;52.508;13.284;2022-07-10T03:34:59;2.07;;;1.23;;
12603;SDS011;6367;52.508;13.284;2022-07-10T03:37:25;4.87;;;1.20;;
12603;SDS011;6367;52.508;13.284;2022-07-10T03:39:51;2.40;;;1.30;;
12603;SDS011;6367;52.508;13.284;2022-07-10T03:42:16;3.33;;;1.10;;
12603;SDS011;6367;52.508;13.284;2022-07-10T03:44:42;3.63;;;1.03;;
12603;SDS011;6367;52.508;13.284;2022-07-10T03:47:08;1.90;;;0.90;;
12603;SDS011;6367;52.508;13.284;2022-07-10T03:49:33;3.07;;;1.27;;
12603;SDS011;6367;52.508;13.284;2022-07-10T03:52:00;1.93;;;1.13;;
12603;SDS011;6367;52.508;13.284;2022-07-10T03:54:26;2.17;;;1.07;;
12603;SDS011;6367;52.508;13.284;2022-07-10T03:56:52;1.40;;;1.00;;
12603;SDS011;6367;52.508;13.284;2022-07-10T03:59:37;4.23;;;1.00;;
12603;SDS011;6367;52.508;13.284;2022-07-10T04:02:02;3.30;;;1.10;;
12603;SDS011;6367;52.508;13.284;2022-07-10T04:04:28;2.37;;;1.13;;
12603;SDS011;6367;52.508;13.284;2022-07-10T04:06:54;2.40;;;1.07;;
12603;SDS011;6367;52.508;13.284;2022-07-10T04:09:19;4.30;;;1.90;;
12603;SDS011;6367;52.508;13.284;2022-07-10T04:11:45;4.13;;;1.30;;
12603;SDS011;6367;52.508;13.284;2022-07-10T04:14:11;4.17;;;1.40;;
12603;SDS011;6367;52.508;13.284;2022-07-10T04:16:36;3.10;;;1.13;;
12603;SDS011;6367;52.508;13.284;2022-07-10T04:19:02;4.50;;;1.47;;
12603;SDS011;6367;52.508;13.284;2022-07-10T04:21:28;2.83;;;1.20;;
12603;SDS011;6367;52.508;13.284;2022-07-10T04:23:53;5.03;;;1.23;;
12603;SDS011;6367;52.508;13.284;2022-07-10T04:26:19;4.83;;;1.20;;
12603;SDS011;6367;52.508;13.284;2022-07-10T04:28:44;5.80;;;1.20;;
12603;SDS011;6367;52.508;13.284;2022-07-10T04:31:10;3.63;;;1.30;;
12603;SDS011;6367;52.508;13.284;2022-07-10T04:33:36;4.87;;;1.07;;
12603;SDS011;6367;52.508;13.284;2022-07-10T04:36:02;3.10;;;1.00;;
12603;SDS011;6367;52.508;13.284;2022-07-10T04:38:27;4.10;;;0.90;;
12603;SDS011;6367;52.508;13.284;2022-07-10T04:40:53;5.80;;;1.87;;
12603;SDS011;6367;52.508;13.284;2022-07-10T04:43:20;2.67;;;1.20;;
12603;SDS011;6367;52.508;13.284;2022-07-10T04:45:46;5.40;;;1.10;;
12603;SDS011;6367;52.508;13.284;2022-07-10T04:48:11;5.43;;;0.90;;
12603;SDS011;6367;52.508;13.284;2022-07-10T04:50:37;3.53;;;1.30;;
12603;SDS011;6367;52.508;13.284;2022-07-10T04:53:03;2.90;;;1.17;;
12603;SDS011;6367;52.508;13.284;2022-07-10T04:55:28;4.90;;;1.30;;
12603;SDS011;6367;52.508;13.284;2022-07-10T04:57:54;2.40;;;0.97;;
12603;SDS011;6367;52.508;13.284;2022-07-10T05:00:20;2.73;;;1.10;;
12603;SDS011;6367;52.508;13.284;2022-07-10T05:02:46;1.60;;;1.00;;
12603;SDS011;6367;52.508;13.284;2022-07-10T05:05:11;6.17;;;1.53;;
12603;SDS011;6367;52.508;13.284;2022-07-10T05:07:37;2.70;;;1.30;;
12603;SDS011;6367;52.508;13.284;2022-07-10T05:10:03;3.80;;;1.50;;
12603;SDS011;6367;52.508;13.284;2022-07-10T05:12:29;3.33;;;1.80;;
12603;SDS011;6367;52.508;13.284;2022-07-10T05:14:54;6.00;;;1.90;;
12603;SDS011;6367;52.508;13.284;2022-07-10T05:17:20;5.43;;;1.60;;
12603;SDS011;6367;52.508;13.284;2022-07-10T05:19:46;4.23;;;1.30;;
12603;SDS011;6367;52.508;13.284;2022-07-10T05:22:12;4.10;;;1.30;;
12603;SDS011;6367;52.508;13.284;2022-07-10T05:24:37;2.43;;;1.40;;
12603;SDS011;6367;52.508;13.284;2022-07-10T05:27:03;6.00;;;1.40;;
12603;SDS011;6367;52.508;13.284;2022-07-10T05:29:29;2.80;;;1.40;;
12603;SDS011;6367;52.508;13.284;2022-07-10T05:31:55;3.93;;;1.50;;
12603;SDS011;6367;52.508;13.284;2022-07-10T05:34:20;5.30;;;2.00;;
12603;SDS011;6367;52.508;13.284;2022-07-10T05:36:46;4.03;;;1.43;;
12603;SDS011;6367;52.508;13.284;2022-07-10T05:39:11;3.40;;;1.33;;
12603;SDS011;6367;52.508;13.284;2022-07-10T05:41:37;4.47;;;1.60;;
12603;SDS011;6367;52.508;13.284;2022-07-10T05:44:03;3.77;;;1.67;;
12603;SDS011;6367;52.508;13.284;2022-07-10T05:46:28;6.30;;;1.57;;
12603;SDS011;6367;52.508;13.284;2022-07-10T05:48:54;2.90;;;1.50;;
12603;SDS011;6367;52.508;13.284;2022-07-10T05:51:20;2.63;;;1.40;;
12603;SDS011;6367;52.508;13.284;2022-07-10T05:53:45;4.33;;;2.00;;
12603;SDS011;6367;52.508;13.284;2022-07-10T05:56:11;4.97;;;1.50;;
12603;SDS011;6367;52.508;13.284;2022-07-10T05:58:36;3.97;;;1.43;;
12603;SDS011;6367;52.508;13.284;2022-07-10T06:01:02;5.77;;;1.70;;
12603;SDS011;6367;52.508;13.284;2022-07-10T06:03:28;5.70;;;1.40;;
12603;SDS011;6367;52.508;13.284;2022-07-10T06:05:53;3.57;;;1.27;;
12603;SDS011;6367;52.508;13.284;2022-07-10T06:08:19;6.60;;;1.53;;
12603;SDS011;6367;52.508;13.284;2022-07-10T06:10:45;5.83;;;1.60;;
12603;SDS011;6367;52.508;13.284;2022-07-10T06:13:11;4.20;;;1.67;;
12603;SDS011;6367;52.508;13.284;2022-07-10T06:15:37;8.40;;;1.80;;
12603;SDS011;6367;52.508;13.284;2022-07-10T06:18:03;4.10;;;1.47;;
12603;SDS011;6367;52.508;13.284;2022-07-10T06:20:28;3.93;;;1.50;;
12603;SDS011;6367;52.508;13.284;2022-07-10T06:22:54;4.13;;;1.33;;
12603;SDS011;6367;52.508;13.284;2022-07-10T06:25:20;4.03;;;1.30;;
12603;SDS011;6367;52.508;13.284;2022-07-10T06:27:46;5.77;;;1.60;;
12603;SDS011;6367;52.508;13.284;2022-07-10T06:30:11;2.60;;;1.43;;
12603;SDS011;6367;52.508;13.284;2022-07-10T06:32:38;6.30;;;1.40;;
12603;SDS011;6367;52.508;13.284;2022-07-10T06:35:04;6.80;;;1.80;;
12603;SDS011;6367;52.508;13.284;2022-07-10T06:37:30;2.37;;;1.40;;
12603;SDS011;6367;52.508;13.284;2022-07-10T06:39:56;5.67;;;1.77;;
12603;SDS011;6367;52.508;13.284;2022-07-10T06:42:22;2.87;;;1.80;;
12603;SDS011;6367;52.508;13.284;2022-07-10T06:44:47;4.40;;;1.63;;
12603;SDS011;6367;52.508;13.284;2022-07-10T06:47:14;5.03;;;1.47;;
12603;SDS011;6367;52.508;13.284;2022-07-10T06:50:01;5.43;;;1.57;;
12603;SDS011;6367;52.508;13.284;2022-07-10T06:52:28;8.40;;;2.13;;
12603;SDS011;6367;52.508;13.284;2022-07-10T06:54:55;9.00;;;1.90;;
12603;SDS011;6367;52.508;13.284;2022-07-10T06:57:22;5.63;;;1.77;;
12603;SDS011;6367;52.508;13.284;2022-07-10T06:59:48;4.33;;;1.63;;
12603;SDS011;6367;52.508;13.284;2022-07-10T07:02:14;4.80;;;1.73;;
12603;SDS011;6367;52.508;13.284;2022-07-10T07:04:39;4.67;;;1.60;;
12603;SDS011;6367;52.508;13.284;2022-07-10T07:07:05;8.33;;;2.13;;
12603;SDS011;6367;52.508;13.284;2022-07-10T07:09:30;4.17;;;1.50;;
12603;SDS011;6367;52.508;13.284;2022-07-10T07:11:56;7.83;;;2.30;;
12603;SDS011;6367;52.508;13.284;2022-07-10T07:14:21;4.73;;;1.80;;
12603;SDS011;6367;52.508;13.284;2022-07-10T07:16:47;3.50;;;1.50;;
12603;SDS011;6367;52.508;13.284;2022-07-10T07:19:23;3.93;;;1.30;;
12603;SDS011;6367;52.508;13.284;2022-07-10T07:21:56;4.90;;;1.80;;
12603;SDS011;6367;52.508;13.284;2022-07-10T07:24:41;4.67;;;1.60;;
12603;SDS011;6367;52.508;13.284;2022-07-10T07:27:09;5.33;;;1.70;;
12603;SDS011;6367;52.508;13.284;2022-07-10T07:29:37;4.00;;;1.60;;
12603;SDS011;6367;52.508;13.284;2022-07-10T07:32:03;6.47;;;2.10;;
12603;SDS011;6367;52.508;13.284;2022-07-10T07:34:29;4.13;;;1.40;;
12603;SDS011;6367;52.508;13.284;2022-07-10T07:36:56;5.13;;;1.40;;
12603;SDS011;6367;52.508;13.284;2022-07-10T07:39:22;4.63;;;2.07;;
12603;SDS011;6367;52.508;13.284;2022-07-10T07:41:48;6.97;;;2.03;;
12603;SDS011;6367;52.508;13.284;2022-07-10T07:44:14;2.93;;;1.80;;
12603;SDS011;6367;52.508;13.284;2022-07-10T07:46:42;4.50;;;2.00;;
12603;SDS011;6367;52.508;13.284;2022-07-10T07:49:08;6.80;;;2.00;;
12603;SDS011;6367;52.508;13.284;2022-07-10T07:51:34;6.67;;;1.80;;
12603;SDS011;6367;52.508;13.284;2022-07-10T07:53:59;4.40;;;1.80;;
12603;SDS011;6367;52.508;13.284;2022-07-10T07:56:25;6.83;;;1.90;;
12603;SDS011;6367;52.508;13.284;2022-07-10T07:58:51;6.20;;;1.83;;
12603;SDS011;6367;52.508;13.284;2022-07-10T08:01:16;6.73;;;1.50;;
12603;SDS011;6367;52.508;13.284;2022-07-10T08:03:44;6.27;;;1.90;;
12603;SDS011;6367;52.508;13.284;2022-07-10T08:06:10;8.00;;;1.60;;
12603;SDS011;6367;52.508;13.284;2022-07-10T08:08:36;9.93;;;2.57;;
12603;SDS011;6367;52.508;13.284;2022-07-10T08:11:01;6.47;;;2.00;;
12603;SDS011;6367;52.508;13.284;2022-07-10T08:13:27;4.10;;;1.40;;
12603;SDS011;6367;52.508;13.284;2022-07-10T08:15:54;4.60;;;1.80;;
12603;SDS011;6367;52.508;13.284;2022-07-10T08:18:19;5.40;;;1.80;;
12603;SDS011;6367;52.508;13.284;2022-07-10T08:20:45;4.37;;;1.40;;
12603;SDS011;6367;52.508;13.284;2022-07-10T08:23:10;5.13;;;1.40;;
12603;SDS011;6367;52.508;13.284;2022-07-10T08:25:36;2.70;;;1.60;;
12603;SDS011;6367;52.508;13.284;2022-07-10T08:28:02;7.00;;;2.27;;
12603;SDS011;6367;52.508;13.284;2022-07-10T08:30:30;10.93;;;2.50;;
12603;SDS011;6367;52.508;13.284;2022-07-10T08:32:56;3.57;;;1.93;;
12603;SDS011;6367;52.508;13.284;2022-07-10T08:35:22;5.10;;;2.03;;
12603;SDS011;6367;52.508;13.284;2022-07-10T08:37:48;4.20;;;1.87;;
12603;SDS011;6367;52.508;13.284;2022-07-10T08:40:14;4.40;;;1.97;;
12603;SDS011;6367;52.508;13.284;2022-07-10T08:42:41;6.40;;;1.97;;
12603;SDS011;6367;52.508;13.284;2022-07-10T08:45:09;4.87;;;1.83;;
12603;SDS011;6367;52.508;13.284;2022-07-10T08:47:36;4.87;;;1.60;;
12603;SDS011;6367;52.508;13.284;2022-07-10T08:50:09;7.43;;;2.17;;
12603;SDS011;6367;52.508;13.284;2022-07-10T08:52:59;4.80;;;1.90;;
12603;SDS011;6367;52.508;13.284;2022-07-10T08:55:32;4.17;;;1.93;;
12603;SDS011;6367;52.508;13.284;2022-07-10T08:57:58;6.40;;;1.80;;
12603;SDS011;6367;52.508;13.284;2022-07-10T09:00:25;3.53;;;1.57;;
12603;SDS011;6367;52.508;13.284;2022-07-10T09:02:53;5.93;;;1.83;;
12603;SDS011;6367;52.508;13.284;2022-07-10T09:05:19;5.80;;;1.83;;
12603;SDS011;6367;52.508;13.284;2022-07-10T09:07:45;4.70;;;1.53;;
12603;SDS011;6367;52.508;13.284;2022-07-10T09:10:11;3.27;;;1.53;;
12603;SDS011;6367;52.508;13.284;2022-07-10T09:12:56;5.63;;;1.93;;
12603;SDS011;6367;52.508;13.284;2022-07-10T09:15:26;4.87;;;1.90;;
12603;SDS011;6367;52.508;13.284;2022-07-10T09:18:01;3.80;;;1.80;;
12603;SDS011;6367;52.508;13.284;2022-07-10T09:20:32;5.87;;;1.87;;
12603;SDS011;6367;52.508;13.284;2022-07-10T09:25:54;6.07;;;2.00;;
12603;SDS011;6367;52.508;13.284;2022-07-10T09:28:21;5.00;;;2.23;;
12603;SDS011;6367;52.508;13.284;2022-07-10T09:30:48;3.53;;;1.67;;
12603;SDS011;6367;52.508;13.284;2022-07-10T09:33:24;6.57;;;2.50;;
12603;SDS011;6367;52.508;13.284;2022-07-10T09:41:14;4.70;;;1.70;;
12603;SDS011;6367;52.508;13.284;2022-07-10T09:43:44;4.80;;;2.00;;
12603;SDS011;6367;52.508;13.284;2022-07-10T09:46:10;6.80;;;1.70;;
12603;SDS011;6367;52.508;13.284;2022-07-10T09:48:36;6.40;;;2.10;;
12603;SDS011;6367;52.508;13.284;2022-07-10T09:51:02;10.27;;;2.50;;
12603;SDS011;6367;52.508;13.284;2022-07-10T09:53:31;6.97;;;2.17;;
12603;SDS011;6367;52.508;13.284;2022-07-10T09:55:58;12.80;;;2.40;;
12603;SDS011;6367;52.508;13.284;2022-07-10T09:58:26;9.77;;;3.10;;
12603;SDS011;6367;52.508;13.284;2022-07-10T10:00:56;3.63;;;2.10;;
12603;SDS011;6367;52.508;13.284;2022-07-10T10:03:23;5.30;;;2.20;;
12603;SDS011;6367;52.508;13.284;2022-07-10T10:08:23;5.20;;;1.83;;
12603;SDS011;6367;52.508;13.284;2022-07-10T10:10:52;6.00;;;2.17;;
12603;SDS011;6367;52.508;13.284;2022-07-10T10:13:24;7.17;;;1.97;;
12603;SDS011;6367;52.508;13.284;2022-07-10T10:15:56;6.13;;;2.10;;
12603;SDS011;6367;52.508;13.284;2022-07-10T10:18:23;5.43;;;1.87;;
12603;SDS011;6367;52.508;13.284;2022-07-10T10:20:50;5.70;;;1.87;;
12603;SDS011;6367;52.508;13.284;2022-07-10T10:23:19;8.77;;;2.00;;
12603;SDS011;6367;52.508;13.284;2022-07-10T10:25:46;5.10;;;2.10;;
12603;SDS011;6367;52.508;13.284;2022-07-10T10:28:13;4.97;;;1.40;;
12603;SDS011;6367;52.508;13.284;2022-07-10T10:30:41;7.30;;;2.17;;
12603;SDS011;6367;52.508;13.284;2022-07-10T10:35:58;3.17;;;1.30;;
12603;SDS011;6367;52.508;13.284;2022-07-10T10:38:24;3.63;;;1.77;;
12603;SDS011;6367;52.508;13.284;2022-07-10T10:40:49;4.47;;;1.57;;
12603;SDS011;6367;52.508;13.284;2022-07-10T10:43:22;4.23;;;1.43;;
12603;SDS011;6367;52.508;13.284;2022-07-10T10:45:51;4.80;;;2.40;;
12603;SDS011;6367;52.508;13.284;2022-07-10T10:48:17;4.77;;;2.17;;
12603;SDS011;6367;52.508;13.284;2022-07-10T10:50:51;4.33;;;1.73;;
12603;SDS011;6367;52.508;13.284;2022-07-10T10:58:25;5.57;;;1.87;;
12603;SDS011;6367;52.508;13.284;2022-07-10T11:00:51;6.37;;;1.80;;
12603;SDS011;6367;52.508;13.284;2022-07-10T11:03:18;8.37;;;2.20;;
12603;SDS011;6367;52.508;13.284;2022-07-10T11:05:45;4.97;;;1.90;;
12603;SDS011;6367;52.508;13.284;2022-07-10T11:08:12;8.43;;;2.40;;
12603;SDS011;6367;52.508;13.284;2022-07-10T11:10:42;8.43;;;1.70;;
12603;SDS011;6367;52.508;13.284;2022-07-10T11:13:18;4.20;;;1.97;;
12603;SDS011;6367;52.508;13.284;2022-07-10T11:15:45;5.23;;;1.60;;
12603;SDS011;6367;52.508;13.284;2022-07-10T11:18:13;4.20;;;1.50;;
12603;SDS011;6367;52.508;13.284;2022-07-10T11:20:40;5.00;;;1.90;;
12603;SDS011;6367;52.508;13.284;2022-07-10T11:26:06;6.57;;;2.03;;
12603;SDS011;6367;52.508;13.284;2022-07-10T11:28:51;5.23;;;1.83;;
12603;SDS011;6367;52.508;13.284;2022-07-10T11:31:19;4.20;;;1.87;;
12603;SDS011;6367;52.508;13.284;2022-07-10T11:33:46;3.87;;;1.87;;
12603;SDS011;6367;52.508;13.284;2022-07-10T11:38:47;6.47;;;2.17;;
12603;SDS011;6367;52.508;13.284;2022-07-10T11:41:14;5.67;;;2.07;;
12603;SDS011;6367;52.508;13.284;2022-07-10T11:43:50;5.33;;;2.13;;
12603;SDS011;6367;52.508;13.284;2022-07-10T11:46:19;5.47;;;1.70;;
12603;SDS011;6367;52.508;13.284;2022-07-10T11:48:47;2.87;;;1.50;;
12603;SDS011;6367;52.508;13.284;2022-07-10T11:51:28;4.73;;;1.60;;
12603;SDS011;6367;52.508;13.284;2022-07-10T11:53:55;5.90;;;2.00;;
12603;SDS011;6367;52.508;13.284;2022-07-10T11:56:26;2.67;;;1.50;;
12603;SDS011;6367;52.508;13.284;2022-07-10T11:59:04;4.30;;;1.97;;
12603;SDS011;6367;52.508;13.284;2022-07-10T12:01:34;3.43;;;1.63;;
12603;SDS011;6367;52.508;13.284;2022-07-10T12:04:07;4.60;;;1.60;;
12603;SDS011;6367;52.508;13.284;2022-07-10T12:06:36;5.80;;;2.33;;
12603;SDS011;6367;52.508;13.284;2022-07-10T12:09:07;6.30;;;1.90;;
12603;SDS011;6367;52.508;13.284;2022-07-10T12:11:37;4.43;;;1.60;;
12603;SDS011;6367;52.508;13.284;2022-07-10T12:14:10;4.43;;;1.57;;
12603;SDS011;6367;52.508;13.284;2022-07-10T12:16:47;4.93;;;1.63;;
12603;SDS011;6367;52.508;13.284;2022-07-10T12:19:19;5.00;;;1.97;;
12603;SDS011;6367;52.508;13.284;2022-07-10T12:21:48;5.20;;;2.63;;
12603;SDS011;6367;52.508;13.284;2022-07-10T12:24:18;5.87;;;2.03;;
12603;SDS011;6367;52.508;13.284;2022-07-10T12:26:47;3.03;;;1.73;;
12603;SDS011;6367;52.508;13.284;2022-07-10T12:29:23;3.57;;;1.70;;
12603;SDS011;6367;52.508;13.284;2022-07-10T12:31:51;7.00;;;2.13;;
12603;SDS011;6367;52.508;13.284;2022-07-10T12:34:19;5.13;;;1.70;;
12603;SDS011;6367;52.508;13.284;2022-07-10T12:39:17;4.87;;;1.93;;
12603;SDS011;6367;52.508;13.284;2022-07-10T12:41:59;3.30;;;1.70;;
12603;SDS011;6367;52.508;13.284;2022-07-10T12:44:41;4.00;;;1.40;;
12603;SDS011;6367;52.508;13.284;2022-07-10T12:47:11;3.90;;;2.20;;
12603;SDS011;6367;52.508;13.284;2022-07-10T12:52:26;2.53;;;1.63;;
12603;SDS011;6367;52.508;13.284;2022-07-10T12:57:47;3.70;;;1.37;;
12603;SDS011;6367;52.508;13.284;2022-07-10T13:00:27;3.93;;;2.07;;
12603;SDS011;6367;52.508;13.284;2022-07-10T13:03:08;5.53;;;1.70;;
12603;SDS011;6367;52.508;13.284;2022-07-10T13:05:35;7.03;;;1.97;;
12603;SDS011;6367;52.508;13.284;2022-07-10T13:10:40;4.97;;;1.60;;
12603;SDS011;6367;52.508;13.284;2022-07-10T13:13:07;6.70;;;2.60;;
12603;SDS011;6367;52.508;13.284;2022-07-10T13:15:34;3.43;;;1.63;;
12603;SDS011;6367;52.508;13.284;2022-07-10T13:18:05;5.90;;;1.90;;
12603;SDS011;6367;52.508;13.284;2022-07-10T13:20:37;5.33;;;2.50;;
12603;SDS011;6367;52.508;13.284;2022-07-10T13:23:02;6.27;;;2.57;;
12603;SDS011;6367;52.508;13.284;2022-07-10T13:25:28;3.20;;;1.60;;
12603;SDS011;6367;52.508;13.284;2022-07-10T13:27:54;4.27;;;1.90;;
12603;SDS011;6367;52.508;13.284;2022-07-10T13:30:20;10.53;;;2.47;;
12603;SDS011;6367;52.508;13.284;2022-07-10T13:32:45;5.83;;;2.03;;
12603;SDS011;6367;52.508;13.284;2022-07-10T13:35:11;3.83;;;2.13;;
12603;SDS011;6367;52.508;13.284;2022-07-10T13:37:36;5.93;;;1.67;;
12603;SDS011;6367;52.508;13.284;2022-07-10T13:40:02;7.50;;;1.60;;
12603;SDS011;6367;52.508;13.284;2022-07-10T13:42:28;5.90;;;1.63;;
12603;SDS011;6367;52.508;13.284;2022-07-10T13:44:54;3.73;;;1.80;;
12603;SDS011;6367;52.508;13.284;2022-07-10T13:47:20;4.90;;;2.13;;
12603;SDS011;6367;52.508;13.284;2022-07-10T13:49:46;3.87;;;1.50;;
12603;SDS011;6367;52.508;13.284;2022-07-10T13:52:11;3.53;;;1.80;;
12603;SDS011;6367;52.508;13.284;2022-07-10T13:54:37;3.80;;;1.70;;
12603;SDS011;6367;52.508;13.284;2022-07-10T13:57:03;2.80;;;1.83;;
12603;SDS011;6367;52.508;13.284;2022-07-10T13:59:29;3.50;;;2.00;;
12603;SDS011;6367;52.508;13.284;2022-07-10T14:01:54;4.50;;;1.37;;
12603;SDS011;6367;52.508;13.284;2022-07-10T14:04:20;4.37;;;2.03;;
12603;SDS011;6367;52.508;13.284;2022-07-10T14:06:46;3.47;;;1.43;;
12603;SDS011;6367;52.508;13.284;2022-07-10T14:09:11;3.53;;;1.67;;
12603;SDS011;6367;52.508;13.284;2022-07-10T14:11:37;3.70;;;1.70;;
12603;SDS011;6367;52.508;13.284;2022-07-10T14:14:03;5.13;;;1.40;;
12603;SDS011;6367;52.508;13.284;2022-07-10T14:16:28;6.83;;;1.40;;
12603;SDS011;6367;52.508;13.284;2022-07-10T14:18:54;3.80;;;1.77;;
12603;SDS011;6367;52.508;13.284;2022-07-10T14:21:19;6.33;;;1.53;;
12603;SDS011;6367;52.508;13.284;2022-07-10T14:23:45;3.37;;;1.57;;
12603;SDS011;6367;52.508;13.284;2022-07-10T14:26:11;3.23;;;1.53;;
12603;SDS011;6367;52.508;13.284;2022-07-10T14:28:38;5.30;;;1.93;;
12603;SDS011;6367;52.508;13.284;2022-07-10T14:31:04;6.50;;;2.60;;
12603;SDS011;6367;52.508;13.284;2022-07-10T14:33:31;2.73;;;1.67;;
12603;SDS011;6367;52.508;13.284;2022-07-10T14:35:58;6.70;;;2.43;;
12603;SDS011;6367;52.508;13.284;2022-07-10T14:38:24;3.27;;;2.03;;
12603;SDS011;6367;52.508;13.284;2022-07-10T14:40:50;5.20;;;2.03;;
12603;SDS011;6367;52.508;13.284;2022-07-10T14:43:18;3.37;;;1.50;;
12603;SDS011;6367;52.508;13.284;2022-07-10T14:45:46;4.00;;;1.43;;
12603;SDS011;6367;52.508;13.284;2022-07-10T14:48:12;2.27;;;1.40;;
12603;SDS011;6367;52.508;13.284;2022-07-10T14:50:38;4.43;;;1.70;;
12603;SDS011;6367;52.508;13.284;2022-07-10T14:53:05;4.27;;;1.83;;
12603;SDS011;6367;52.508;13.284;2022-07-10T14:55:32;3.00;;;1.63;;
12603;SDS011;6367;52.508;13.284;2022-07-10T14:57:57;3.60;;;1.20;;
12603;SDS011;6367;52.508;13.284;2022-07-10T15:00:23;2.07;;;1.33;;
12603;SDS011;6367;52.508;13.284;2022-07-10T15:02:49;3.40;;;1.80;;
12603;SDS011;6367;52.508;13.284;2022-07-10T15:05:14;4.80;;;1.50;;
12603;SDS011;6367;52.508;13.284;2022-07-10T15:07:40;5.87;;;2.40;;
12603;SDS011;6367;52.508;13.284;2022-07-10T15:10:05;8.47;;;4.97;;
12603;SDS011;6367;52.508;13.284;2022-07-10T15:12:33;10.10;;;6.17;;
12603;SDS011;6367;52.508;13.284;2022-07-10T15:15:04;8.70;;;5.00;;
12603;SDS011;6367;52.508;13.284;2022-07-10T15:17:32;8.47;;;6.40;;
12603;SDS011;6367;52.508;13.284;2022-07-10T15:19:59;4.83;;;2.70;;
12603;SDS011;6367;52.508;13.284;2022-07-10T15:22:24;8.50;;;4.50;;
12603;SDS011;6367;52.508;13.284;2022-07-10T15:24:50;2.60;;;1.53;;
12603;SDS011;6367;52.508;13.284;2022-07-10T15:27:16;3.10;;;1.53;;